sensor_id;sensor_type;location;lat;lon;timestamp;pressure;altitude;pressure_sealevel;temperature;humidity
42587;BME280;28216;53.362;-6.288;2023-02-02T00:01:35;102186.69;;;8.99;100.00
42587;BME280;28216;53.362;-6.288;2023-02-02T00:04:01;102193.72;;;8.98;100.00
42587;BME280;28216;53.362;-6.288;2023-02-02T00:06:28;102185.84;;;8.98;100.00
42587;BME280;28216;53.362;-6.288;2023-02-02T00:08:55;102191.09;;;8.98;100.00
42587;BME280;28216;53.362;-6.288;2023-02-02T00:11:21;102186.59;;;9.00;100.00
42587;BME280;28216;53.362;-6.288;2023-02-02T00:13:47;102187.41;;;9.01;100.00
42587;BME280;28216;53.362;-6.288;2023-02-02T00:18:51;102187.19;;;9.04;100.00
42587;BME280;28216;53.362;-6.288;2023-02-02T00:21:16;102189.09;;;9.02;100.00
42587;BME280;28216;53.362;-6.288;2023-02-02T00:23:42;102186.25;;;9.05;100.00
42587;BME280;28216;53.362;-6.288;2023-02-02T00:26:08;102179.94;;;9.07;100.00
42587;BME280;28216;53.362;-6.288;2023-02-02T00:28:33;102188.63;;;9.08;100.00
42587;BME280;28216;53.362;-6.288;2023-02-02T00:30:59;102188.50;;;9.09;100.00
42587;BME280;28216;53.362;-6.288;2023-02-02T00:33:24;102189.22;;;9.11;100.00
42587;BME280;28216;53.362;-6.288;2023-02-02T00:35:53;102189.94;;;9.13;100.00
42587;BME280;28216;53.362;-6.288;2023-02-02T00:38:19;102191.63;;;9.14;100.00
42587;BME280;28216;53.362;-6.288;2023-02-02T00:40:44;102188.75;;;9.17;100.00
42587;BME280;28216;53.362;-6.288;2023-02-02T00:43:10;102184.38;;;9.18;100.00
42587;BME280;28216;53.362;-6.288;2023-02-02T00:45:36;102186.97;;;9.18;100.00
42587;BME280;28216;53.362;-6.288;2023-02-02T00:48:02;102187.59;;;9.21;100.00
42587;BME280;28216;53.362;-6.288;2023-02-02T00:50:28;102178.78;;;9.22;100.00
42587;BME280;28216;53.362;-6.288;2023-02-02T00:52:54;102184.13;;;9.21;100.00
42587;BME280;28216;53.362;-6.288;2023-02-02T00:55:19;102188.41;;;9.22;100.00
42587;BME280;28216;53.362;-6.288;2023-02-02T00:57:46;102177.50;;;9.28;100.00
42587;BME280;28216;53.362;-6.288;2023-02-02T01:00:15;102178.56;;;9.26;100.00
42587;BME280;28216;53.362;-6.288;2023-02-02T01:02:41;102171.53;;;9.26;100.00
42587;BME280;28216;53.362;-6.288;2023-02-02T01:05:07;102171.31;;;9.29;100.00
42587;BME280;28216;53.362;-6.288;2023-02-02T01:07:32;102173.81;;;9.31;100.00
42587;BME280;28216;53.362;-6.288;2023-02-02T01:09:58;102174.75;;;9.30;100.00
42587;BME280;28216;53.362;-6.288;2023-02-02T01:12:23;102168.56;;;9.31;100.00
42587;BME280;28216;53.362;-6.288;2023-02-02T01:14:49;102180.59;;;9.33;100.00
42587;BME280;28216;53.362;-6.288;2023-02-02T01:17:14;102174.53;;;9.33;100.00
42587;BME280;28216;53.362;-6.288;2023-02-02T01:19:40;102177.13;;;9.33;100.00
42587;BME280;28216;53.362;-6.288;2023-02-02T01:22:06;102177.03;;;9.34;100.00
42587;BME280;28216;53.362;-6.288;2023-02-02T01:24:32;102173.47;;;9.35;100.00
42587;BME280;28216;53.362;-6.288;2023-02-02T01:26:57;102168.09;;;9.37;100.00
42587;BME280;28216;53.362;-6.288;2023-02-02T01:29:22;102171.06;;;9.32;100.00
42587;BME280;28216;53.362;-6.288;2023-02-02T01:31:48;102169.78;;;9.38;100.00
42587;BME280;28216;53.362;-6.288;2023-02-02T01:34:14;102163.47;;;9.40;100.00
42587;BME280;28216;53.362;-6.288;2023-02-02T01:36:39;102164.31;;;9.41;100.00
42587;BME280;28216;53.362;-6.288;2023-02-02T01:39:05;102158.22;;;9.40;100.00
42587;BME280;28216;53.362;-6.288;2023-02-02T01:41:30;102161.69;;;9.41;100.00
42587;BME280;28216;53.362;-6.288;2023-02-02T01:44:02;102165.13;;;9.41;100.00
42587;BME280;28216;53.362;-6.288;2023-02-02T01:46:31;102165.03;;;9.43;100.00
42587;BME280;28216;53.362;-6.288;2023-02-02T01:51:26;102155.97;;;9.47;100.00
42587;BME280;28216;53.362;-6.288;2023-02-02T01:53:55;102148.00;;;9.48;100.00
42587;BME280;28216;53.362;-6.288;2023-02-02T01:56:35;102154.66;;;9.52;100.00
42587;BME280;28216;53.362;-6.288;2023-02-02T01:59:02;102153.84;;;9.52;100.00
42587;BME280;28216;53.362;-6.288;2023-02-02T02:01:29;102150.97;;;9.55;100.00
42587;BME280;28216;53.362;-6.288;2023-02-02T02:03:54;102146.94;;;9.51;100.00
42587;BME280;28216;53.362;-6.288;2023-02-02T02:06:20;102149.56;;;9.51;100.00
42587;BME280;28216;53.362;-6.288;2023-02-02T02:08:53;102147.66;;;9.53;100.00
42587;BME280;28216;53.362;-6.288;2023-02-02T02:11:20;102142.41;;;9.53;100.00
42587;BME280;28216;53.362;-6.288;2023-02-02T02:13:46;102138.00;;;9.53;100.00
42587;BME280;28216;53.362;-6.288;2023-02-02T02:32:45;102131.94;;;9.42;100.00
42587;BME280;28216;53.362;-6.288;2023-02-02T02:40:43;102117.78;;;9.33;100.00
42587;BME280;28216;53.362;-6.288;2023-02-02T02:43:15;102117.91;;;9.32;100.00
42587;BME280;28216;53.362;-6.288;2023-02-02T02:45:42;102110.63;;;9.35;100.00
42587;BME280;28216;53.362;-6.288;2023-02-02T02:48:09;102111.47;;;9.36;100.00
42587;BME280;28216;53.362;-6.288;2023-02-02T02:50:35;102109.22;;;9.31;100.00
42587;BME280;28216;53.362;-6.288;2023-02-02T02:53:04;102104.69;;;9.33;100.00
42587;BME280;28216;53.362;-6.288;2023-02-02T02:55:41;102105.16;;;9.38;100.00
42587;BME280;28216;53.362;-6.288;2023-02-02T02:58:28;102103.63;;;9.36;100.00
42587;BME280;28216;53.362;-6.288;2023-02-02T03:01:09;102106.00;;;9.39;100.00
42587;BME280;28216;53.362;-6.288;2023-02-02T03:06:47;102113.00;;;9.38;100.00
42587;BME280;28216;53.362;-6.288;2023-02-02T03:09:18;102115.63;;;9.38;100.00
42587;BME280;28216;53.362;-6.288;2023-02-02T03:11:46;102107.66;;;9.40;100.00
42587;BME280;28216;53.362;-6.288;2023-02-02T03:14:11;102112.19;;;9.38;100.00
42587;BME280;28216;53.362;-6.288;2023-02-02T03:16:37;102101.72;;;9.38;100.00
42587;BME280;28216;53.362;-6.288;2023-02-02T03:19:04;102095.28;;;9.42;100.00
42587;BME280;28216;53.362;-6.288;2023-02-02T03:21:31;102101.13;;;9.45;100.00
42587;BME280;28216;53.362;-6.288;2023-02-02T03:23:57;102111.00;;;9.42;100.00
42587;BME280;28216;53.362;-6.288;2023-02-02T03:26:23;102114.22;;;9.45;100.00
42587;BME280;28216;53.362;-6.288;2023-02-02T03:28:51;102117.78;;;9.44;100.00
42587;BME280;28216;53.362;-6.288;2023-02-02T03:31:18;102113.50;;;9.43;100.00
42587;BME280;28216;53.362;-6.288;2023-02-02T03:33:43;102109.44;;;9.39;100.00
42587;BME280;28216;53.362;-6.288;2023-02-02T03:36:09;102116.47;;;9.39;100.00
42587;BME280;28216;53.362;-6.288;2023-02-02T03:38:34;102113.63;;;9.42;100.00
42587;BME280;28216;53.362;-6.288;2023-02-02T03:41:00;102118.84;;;9.42;100.00
42587;BME280;28216;53.362;-6.288;2023-02-02T03:43:26;102118.97;;;9.40;100.00
42587;BME280;28216;53.362;-6.288;2023-02-02T03:46:00;102121.69;;;9.39;100.00
42587;BME280;28216;53.362;-6.288;2023-02-02T03:48:26;102121.81;;;9.37;100.00
42587;BME280;28216;53.362;-6.288;2023-02-02T03:50:52;102118.50;;;9.35;100.00
42587;BME280;28216;53.362;-6.288;2023-02-02T03:53:18;102122.88;;;9.35;100.00
42587;BME280;28216;53.362;-6.288;2023-02-02T03:55:43;102120.50;;;9.32;100.00
42587;BME280;28216;53.362;-6.288;2023-02-02T03:58:09;102126.56;;;9.32;100.00
42587;BME280;28216;53.362;-6.288;2023-02-02T04:00:35;102121.47;;;9.31;100.00
42587;BME280;28216;53.362;-6.288;2023-02-02T04:03:00;102115.41;;;9.30;100.00
42587;BME280;28216;53.362;-6.288;2023-02-02T04:05:26;102123.00;;;9.33;100.00
42587;BME280;28216;53.362;-6.288;2023-02-02T04:07:52;102125.75;;;9.32;100.00
42587;BME280;28216;53.362;-6.288;2023-02-02T04:10:17;102119.44;;;9.34;100.00
42587;BME280;28216;53.362;-6.288;2023-02-02T04:12:43;102120.28;;;9.35;100.00
42587;BME280;28216;53.362;-6.288;2023-02-02T04:15:09;102115.75;;;9.37;100.00
42587;BME280;28216;53.362;-6.288;2023-02-02T04:17:34;102117.53;;;9.36;100.00
42587;BME280;28216;53.362;-6.288;2023-02-02T04:20:01;102119.09;;;9.39;100.00
42587;BME280;28216;53.362;-6.288;2023-02-02T04:22:27;102124.19;;;9.40;100.00
42587;BME280;28216;53.362;-6.288;2023-02-02T04:24:53;102124.19;;;9.40;100.00
42587;BME280;28216;53.362;-6.288;2023-02-02T04:27:18;102121.22;;;9.45;100.00
42587;BME280;28216;53.362;-6.288;2023-02-02T04:29:44;102122.78;;;9.47;100.00
42587;BME280;28216;53.362;-6.288;2023-02-02T04:32:09;102115.75;;;9.48;100.00
42587;BME280;28216;53.362;-6.288;2023-02-02T04:34:35;102115.75;;;9.48;100.00
42587;BME280;28216;53.362;-6.288;2023-02-02T04:37:00;102114.31;;;9.44;100.00
42587;BME280;28216;53.362;-6.288;2023-02-02T04:39:26;102115.28;;;9.43;100.00
42587;BME280;28216;53.362;-6.288;2023-02-02T04:41:51;102113.25;;;9.46;100.00
42587;BME280;28216;53.362;-6.288;2023-02-02T04:44:17;102098.50;;;9.45;100.00
42587;BME280;28216;53.362;-6.288;2023-02-02T04:46:43;102109.56;;;9.49;100.00
42587;BME280;28216;53.362;-6.288;2023-02-02T04:49:10;102100.88;;;9.48;100.00
42587;BME280;28216;53.362;-6.288;2023-02-02T04:51:37;102096.59;;;9.47;100.00
42587;BME280;28216;53.362;-6.288;2023-02-02T04:54:04;102098.38;;;9.47;100.00
42587;BME280;28216;53.362;-6.288;2023-02-02T04:56:29;102101.13;;;9.45;100.00
42587;BME280;28216;53.362;-6.288;2023-02-02T04:58:54;102103.63;;;9.47;100.00
42587;BME280;28216;53.362;-6.288;2023-02-02T05:01:20;102102.91;;;9.45;100.00
42587;BME280;28216;53.362;-6.288;2023-02-02T05:03:47;102103.63;;;9.47;100.00
42587;BME280;28216;53.362;-6.288;2023-02-02T05:06:13;102114.09;;;9.47;100.00
42587;BME280;28216;53.362;-6.288;2023-02-02T05:08:39;102117.41;;;9.49;100.00
42587;BME280;28216;53.362;-6.288;2023-02-02T05:11:13;102106.13;;;9.48;100.00
42587;BME280;28216;53.362;-6.288;2023-02-02T05:13:39;102122.91;;;9.46;100.00
42587;BME280;28216;53.362;-6.288;2023-02-02T05:16:05;102115.88;;;9.46;100.00
42587;BME280;28216;53.362;-6.288;2023-02-02T05:18:31;102125.63;;;9.44;100.00
42587;BME280;28216;53.362;-6.288;2023-02-02T05:21:01;102130.03;;;9.44;100.00
42587;BME280;28216;53.362;-6.288;2023-02-02T05:23:28;;;;9.38;
42587;BME280;28216;53.362;-6.288;2023-02-02T05:25:55;102126.09;;;9.38;100.00
42587;BME280;28216;53.362;-6.288;2023-02-02T05:28:21;102119.31;;;9.36;100.00
42587;BME280;28216;53.362;-6.288;2023-02-02T05:30:47;102116.00;;;9.34;100.00
42587;BME280;28216;53.362;-6.288;2023-02-02T05:33:13;102108.50;;;9.29;100.00
42587;BME280;28216;53.362;-6.288;2023-02-02T05:35:39;102115.63;;;9.27;100.00
42587;BME280;28216;53.362;-6.288;2023-02-02T05:38:05;102112.19;;;9.27;100.00
42587;BME280;28216;53.362;-6.288;2023-02-02T05:40:30;102105.16;;;9.27;100.00
42587;BME280;28216;53.362;-6.288;2023-02-02T05:42:55;102098.84;;;9.30;100.00
42587;BME280;28216;53.362;-6.288;2023-02-02T05:45:22;102092.56;;;9.32;100.00
42587;BME280;28216;53.362;-6.288;2023-02-02T05:47:47;102094.94;;;9.35;100.00
42587;BME280;28216;53.362;-6.288;2023-02-02T05:50:13;102091.25;;;9.38;100.00
42587;BME280;28216;53.362;-6.288;2023-02-02T05:52:39;102088.63;;;9.38;100.00
42587;BME280;28216;53.362;-6.288;2023-02-02T05:55:06;102093.75;;;9.39;100.00
42587;BME280;28216;53.362;-6.288;2023-02-02T05:57:31;102095.28;;;9.42;100.00
42587;BME280;28216;53.362;-6.288;2023-02-02T05:59:57;102087.44;;;9.42;100.00
42587;BME280;28216;53.362;-6.288;2023-02-02T06:02:22;102091.84;;;9.41;100.00
42587;BME280;28216;53.362;-6.288;2023-02-02T06:04:48;102091.25;;;9.38;100.00
42587;BME280;28216;53.362;-6.288;2023-02-02T06:07:13;102086.38;;;9.33;100.00
42587;BME280;28216;53.362;-6.288;2023-02-02T06:09:39;102085.41;;;9.34;100.00
42587;BME280;28216;53.362;-6.288;2023-02-02T06:12:05;102090.06;;;9.31;100.00
42587;BME280;28216;53.362;-6.288;2023-02-02T06:14:30;102087.56;;;9.29;100.00
42587;BME280;28216;53.362;-6.288;2023-02-02T06:16:56;102089.81;;;9.34;100.00
42587;BME280;28216;53.362;-6.288;2023-02-02T06:19:23;102080.91;;;9.36;100.00
42587;BME280;28216;53.362;-6.288;2023-02-02T06:21:48;102082.69;;;9.36;100.00
42587;BME280;28216;53.362;-6.288;2023-02-02T06:24:14;102082.78;;;9.34;100.00
42587;BME280;28216;53.362;-6.288;2023-02-02T06:26:39;102084.59;;;9.34;100.00
42587;BME280;28216;53.362;-6.288;2023-02-02T06:29:04;102089.47;;;9.27;100.00
42587;BME280;28216;53.362;-6.288;2023-02-02T06:31:31;102097.44;;;9.26;100.00
42587;BME280;28216;53.362;-6.288;2023-02-02T06:33:58;102094.81;;;9.26;100.00
42587;BME280;28216;53.362;-6.288;2023-02-02T06:36:25;102096.81;;;9.22;100.00
42587;BME280;28216;53.362;-6.288;2023-02-02T06:38:51;102091.13;;;9.17;100.00
42587;BME280;28216;53.362;-6.288;2023-02-02T06:41:18;102098.38;;;9.13;100.00
42587;BME280;28216;53.362;-6.288;2023-02-02T06:43:45;102083.72;;;9.11;100.00
42587;BME280;28216;53.362;-6.288;2023-02-02T06:46:10;102091.09;;;9.06;100.00
42587;BME280;28216;53.362;-6.288;2023-02-02T06:48:36;102087.88;;;9.02;100.00
42587;BME280;28216;53.362;-6.288;2023-02-02T06:51:02;102088.00;;;9.01;100.00
42587;BME280;28216;53.362;-6.288;2023-02-02T06:53:27;102098.34;;;9.02;100.00
42587;BME280;28216;53.362;-6.288;2023-02-02T06:56:05;102097.03;;;8.97;100.00
42587;BME280;28216;53.362;-6.288;2023-02-02T06:58:32;102096.09;;;8.98;100.00
42587;BME280;28216;53.362;-6.288;2023-02-02T07:01:06;102104.41;;;9.03;100.00
42587;BME280;28216;53.362;-6.288;2023-02-02T07:03:33;102117.38;;;9.04;100.00
42587;BME280;28216;53.362;-6.288;2023-02-02T07:05:58;102112.97;;;9.05;100.00
42587;BME280;28216;53.362;-6.288;2023-02-02T07:08:24;102111.09;;;9.07;100.00
42587;BME280;28216;53.362;-6.288;2023-02-02T07:10:49;102110.00;;;9.09;100.00
42587;BME280;28216;53.362;-6.288;2023-02-02T07:13:15;102112.50;;;9.11;100.00
42587;BME280;28216;53.362;-6.288;2023-02-02T07:15:40;102106.44;;;9.10;100.00
42587;BME280;28216;53.362;-6.288;2023-02-02T07:18:06;102107.16;;;9.12;100.00
42587;BME280;28216;53.362;-6.288;2023-02-02T07:20:32;102103.84;;;9.10;100.00
42587;BME280;28216;53.362;-6.288;2023-02-02T07:22:57;102098.84;;;9.07;100.00
42587;BME280;28216;53.362;-6.288;2023-02-02T07:25:23;102106.19;;;9.02;100.00
42587;BME280;28216;53.362;-6.288;2023-02-02T07:27:54;102114.41;;;8.98;100.00
42587;BME280;28216;53.362;-6.288;2023-02-02T07:30:20;102100.38;;;8.99;100.00
42587;BME280;28216;53.362;-6.288;2023-02-02T07:32:47;102107.84;;;8.92;100.00
42587;BME280;28216;53.362;-6.288;2023-02-02T07:35:13;102101.56;;;8.95;100.00
42587;BME280;28216;53.362;-6.288;2023-02-02T07:37:38;102113.56;;;8.97;100.00
42587;BME280;28216;53.362;-6.288;2023-02-02T07:40:04;102096.69;;;9.01;100.00
42587;BME280;28216;53.362;-6.288;2023-02-02T07:42:29;102102.50;;;9.05;100.00
42587;BME280;28216;53.362;-6.288;2023-02-02T07:44:55;102104.91;;;9.08;100.00
42587;BME280;28216;53.362;-6.288;2023-02-02T07:47:23;102100.97;;;9.13;100.00
42587;BME280;28216;53.362;-6.288;2023-02-02T07:49:49;102101.47;;;9.18;100.00
42587;BME280;28216;53.362;-6.288;2023-02-02T07:52:14;102102.91;;;9.22;100.00
42587;BME280;28216;53.362;-6.288;2023-02-02T07:54:40;102109.09;;;9.21;100.00
42587;BME280;28216;53.362;-6.288;2023-02-02T07:57:08;102094.44;;;9.19;100.00
42587;BME280;28216;53.362;-6.288;2023-02-02T07:59:35;102098.38;;;9.13;100.00
42587;BME280;28216;53.362;-6.288;2023-02-02T08:02:03;102097.41;;;9.14;100.00
42587;BME280;28216;53.362;-6.288;2023-02-02T08:04:28;102099.31;;;9.12;100.00
42587;BME280;28216;53.362;-6.288;2023-02-02T08:06:54;102107.06;;;9.14;100.00
42587;BME280;28216;53.362;-6.288;2023-02-02T08:09:19;102104.44;;;9.14;100.00
42587;BME280;28216;53.362;-6.288;2023-02-02T08:11:45;102097.41;;;9.14;100.00
42587;BME280;28216;53.362;-6.288;2023-02-02T08:14:11;102100.97;;;9.13;100.00
42587;BME280;28216;53.362;-6.288;2023-02-02T08:16:38;102115.63;;;9.16;100.00
42587;BME280;28216;53.362;-6.288;2023-02-02T08:19:03;102114.53;;;9.18;100.00
42587;BME280;28216;53.362;-6.288;2023-02-02T08:21:32;102116.09;;;9.21;100.00
42587;BME280;28216;53.362;-6.288;2023-02-02T08:23:58;102112.66;;;9.20;100.00
42587;BME280;28216;53.362;-6.288;2023-02-02T08:26:26;102098.00;;;9.18;100.00
42587;BME280;28216;53.362;-6.288;2023-02-02T08:28:58;102104.91;;;9.19;100.00
42587;BME280;28216;53.362;-6.288;2023-02-02T08:31:27;102110.50;;;9.14;100.00
42587;BME280;28216;53.362;-6.288;2023-02-02T08:33:53;102100.88;;;9.15;100.00
42587;BME280;28216;53.362;-6.288;2023-02-02T08:36:21;102104.44;;;9.14;100.00
42587;BME280;28216;53.362;-6.288;2023-02-02T08:38:47;102099.81;;;9.17;100.00
42587;BME280;28216;53.362;-6.288;2023-02-02T08:41:16;102104.56;;;9.23;100.00
42587;BME280;28216;53.362;-6.288;2023-02-02T08:43:42;102108.84;;;9.24;100.00
42587;BME280;28216;53.362;-6.288;2023-02-02T08:46:09;102106.22;;;9.24;100.00
42587;BME280;28216;53.362;-6.288;2023-02-02T08:48:35;102128.47;;;9.30;100.00
42587;BME280;28216;53.362;-6.288;2023-02-02T08:51:01;102108.97;;;9.34;100.00
42587;BME280;28216;53.362;-6.288;2023-02-02T08:53:27;102114.81;;;9.38;100.00
42587;BME280;28216;53.362;-6.288;2023-02-02T08:56:14;102116.47;;;9.39;100.00
42587;BME280;28216;53.362;-6.288;2023-02-02T08:58:47;102118.00;;;9.41;100.00
42587;BME280;28216;53.362;-6.288;2023-02-02T09:01:16;102128.25;;;9.44;100.00
